Terminal Aerodrome Forecast
Issued by NWS

Home | Current Version | Previous Version | Text Only | Print | Product List | Glossary On
Versions: 1 2 3 4 5 6 7 8 9 10 11 12 13 14 15 16 17 18 19 20 21 22 23 24 25 26 27 28 29 30 31 32 33 34
000
FTUS43 KDLH 012100 AAC
TAFBRD
TAF AMD
KBRD 012101Z 0121/0218 30012G18KT P6SM FEW025
     FM012300 28008KT P6SM VCTS BKN045CB
     FM020300 28004KT P6SM SCT050
     FM020600 27002KT P6SM SCT250=

USA.gov is the U.S. government's official web portal to all federal, state and local government web resources and services.